sensor_id;sensor_type;location;lat;lon;timestamp;temperature;humidity
6146;DHT22;3104;50.348;7.620;2023-07-31T00:00:43;18.90;99.90
6146;DHT22;3104;50.348;7.620;2023-07-31T00:03:08;18.80;99.90
6146;DHT22;3104;50.348;7.620;2023-07-31T00:05:35;18.80;99.90
6146;DHT22;3104;50.348;7.620;2023-07-31T00:08:01;18.90;1.00
6146;DHT22;3104;50.348;7.620;2023-07-31T00:10:26;18.80;99.90
6146;DHT22;3104;50.348;7.620;2023-07-31T00:12:52;18.80;99.90
6146;DHT22;3104;50.348;7.620;2023-07-31T00:15:17;18.80;1.00
6146;DHT22;3104;50.348;7.620;2023-07-31T00:17:43;18.80;1.00
6146;DHT22;3104;50.348;7.620;2023-07-31T00:20:09;18.80;1.00
6146;DHT22;3104;50.348;7.620;2023-07-31T00:22:35;18.70;1.00
6146;DHT22;3104;50.348;7.620;2023-07-31T00:25:01;18.70;1.00
6146;DHT22;3104;50.348;7.620;2023-07-31T00:27:27;18.70;1.00
6146;DHT22;3104;50.348;7.620;2023-07-31T00:29:52;18.70;1.00
6146;DHT22;3104;50.348;7.620;2023-07-31T00:32:18;18.60;19.20
6146;DHT22;3104;50.348;7.620;2023-07-31T00:34:44;18.60;99.90
6146;DHT22;3104;50.348;7.620;2023-07-31T00:37:09;18.60;99.90
6146;DHT22;3104;50.348;7.620;2023-07-31T00:39:35;18.50;99.90
6146;DHT22;3104;50.348;7.620;2023-07-31T00:42:01;18.60;99.90
6146;DHT22;3104;50.348;7.620;2023-07-31T00:44:26;18.60;1.00
6146;DHT22;3104;50.348;7.620;2023-07-31T00:46:54;18.60;99.90
6146;DHT22;3104;50.348;7.620;2023-07-31T00:49:20;18.60;99.90
6146;DHT22;3104;50.348;7.620;2023-07-31T00:51:46;18.60;9.80
6146;DHT22;3104;50.348;7.620;2023-07-31T00:54:12;18.60;99.90
6146;DHT22;3104;50.348;7.620;2023-07-31T00:56:38;18.60;99.90
6146;DHT22;3104;50.348;7.620;2023-07-31T00:59:03;18.60;99.90
6146;DHT22;3104;50.348;7.620;2023-07-31T01:01:29;18.60;99.90
6146;DHT22;3104;50.348;7.620;2023-07-31T01:03:55;18.50;99.90
6146;DHT22;3104;50.348;7.620;2023-07-31T01:06:24;18.60;99.90
6146;DHT22;3104;50.348;7.620;2023-07-31T01:09:01;18.60;99.90
6146;DHT22;3104;50.348;7.620;2023-07-31T01:11:30;18.60;99.90
6146;DHT22;3104;50.348;7.620;2023-07-31T01:13:56;18.60;99.90
6146;DHT22;3104;50.348;7.620;2023-07-31T01:16:22;18.60;99.90
6146;DHT22;3104;50.348;7.620;2023-07-31T01:18:48;18.60;99.90
6146;DHT22;3104;50.348;7.620;2023-07-31T01:21:26;18.60;1.00
6146;DHT22;3104;50.348;7.620;2023-07-31T01:24:28;18.50;1.00
6146;DHT22;3104;50.348;7.620;2023-07-31T01:27:06;18.40;1.00
6146;DHT22;3104;50.348;7.620;2023-07-31T01:29:47;18.40;39.00
6146;DHT22;3104;50.348;7.620;2023-07-31T01:32:14;18.40;1.00
6146;DHT22;3104;50.348;7.620;2023-07-31T01:34:43;18.40;99.90
6146;DHT22;3104;50.348;7.620;2023-07-31T01:37:09;18.40;96.00
6146;DHT22;3104;50.348;7.620;2023-07-31T01:39:35;18.50;8.50
6146;DHT22;3104;50.348;7.620;2023-07-31T01:42:00;18.40;1.00
6146;DHT22;3104;50.348;7.620;2023-07-31T01:44:26;18.40;1.00
6146;DHT22;3104;50.348;7.620;2023-07-31T01:46:51;18.40;99.90
6146;DHT22;3104;50.348;7.620;2023-07-31T01:49:17;18.40;21.00
6146;DHT22;3104;50.348;7.620;2023-07-31T01:51:43;18.50;92.50
6146;DHT22;3104;50.348;7.620;2023-07-31T01:54:08;18.40;72.20
6146;DHT22;3104;50.348;7.620;2023-07-31T01:56:34;18.40;99.90
6146;DHT22;3104;50.348;7.620;2023-07-31T01:58:59;18.30;99.90
6146;DHT22;3104;50.348;7.620;2023-07-31T02:01:25;18.30;1.00
6146;DHT22;3104;50.348;7.620;2023-07-31T02:03:50;18.30;99.90
6146;DHT22;3104;50.348;7.620;2023-07-31T02:06:16;18.30;99.90
6146;DHT22;3104;50.348;7.620;2023-07-31T02:08:42;18.30;1.00
6146;DHT22;3104;50.348;7.620;2023-07-31T02:11:07;18.30;99.90
6146;DHT22;3104;50.348;7.620;2023-07-31T02:13:33;18.30;1.00
6146;DHT22;3104;50.348;7.620;2023-07-31T02:15:58;18.30;1.00
6146;DHT22;3104;50.348;7.620;2023-07-31T02:18:24;18.30;1.00
6146;DHT22;3104;50.348;7.620;2023-07-31T02:20:50;18.20;99.90
6146;DHT22;3104;50.348;7.620;2023-07-31T02:23:17;18.30;1.00
6146;DHT22;3104;50.348;7.620;2023-07-31T02:25:43;18.20;99.90
6146;DHT22;3104;50.348;7.620;2023-07-31T02:28:09;18.20;1.00
6146;DHT22;3104;50.348;7.620;2023-07-31T02:30:34;18.10;99.90
6146;DHT22;3104;50.348;7.620;2023-07-31T02:33:00;18.10;1.00
6146;DHT22;3104;50.348;7.620;2023-07-31T02:35:25;18.10;1.00
6146;DHT22;3104;50.348;7.620;2023-07-31T02:37:51;18.10;68.10
6146;DHT22;3104;50.348;7.620;2023-07-31T02:40:16;18.10;99.90
6146;DHT22;3104;50.348;7.620;2023-07-31T02:42:42;18.10;1.00
6146;DHT22;3104;50.348;7.620;2023-07-31T02:45:08;18.10;1.00
6146;DHT22;3104;50.348;7.620;2023-07-31T02:47:34;18.10;99.90
6146;DHT22;3104;50.348;7.620;2023-07-31T02:50:00;18.10;42.10
6146;DHT22;3104;50.348;7.620;2023-07-31T02:52:25;18.20;99.90
6146;DHT22;3104;50.348;7.620;2023-07-31T02:54:51;18.10;1.00
6146;DHT22;3104;50.348;7.620;2023-07-31T02:57:17;18.20;1.00
6146;DHT22;3104;50.348;7.620;2023-07-31T02:59:42;18.10;99.20
6146;DHT22;3104;50.348;7.620;2023-07-31T03:02:08;18.10;1.00
6146;DHT22;3104;50.348;7.620;2023-07-31T03:04:33;18.10;1.00
6146;DHT22;3104;50.348;7.620;2023-07-31T03:06:59;18.10;71.60
6146;DHT22;3104;50.348;7.620;2023-07-31T03:09:25;18.10;1.00
6146;DHT22;3104;50.348;7.620;2023-07-31T03:11:50;18.00;1.00
6146;DHT22;3104;50.348;7.620;2023-07-31T03:14:16;18.00;99.90
6146;DHT22;3104;50.348;7.620;2023-07-31T03:16:41;18.00;1.00
6146;DHT22;3104;50.348;7.620;2023-07-31T03:19:07;18.00;1.00
6146;DHT22;3104;50.348;7.620;2023-07-31T03:21:32;18.00;1.00
6146;DHT22;3104;50.348;7.620;2023-07-31T03:23:58;18.10;62.00
6146;DHT22;3104;50.348;7.620;2023-07-31T03:26:23;18.10;99.90
6146;DHT22;3104;50.348;7.620;2023-07-31T03:28:49;18.00;99.90
6146;DHT22;3104;50.348;7.620;2023-07-31T03:31:15;18.00;99.90
6146;DHT22;3104;50.348;7.620;2023-07-31T03:33:40;18.00;1.00
6146;DHT22;3104;50.348;7.620;2023-07-31T03:36:06;18.00;1.00
6146;DHT22;3104;50.348;7.620;2023-07-31T03:38:31;17.90;28.80
6146;DHT22;3104;50.348;7.620;2023-07-31T03:40:57;17.90;1.00
6146;DHT22;3104;50.348;7.620;2023-07-31T03:43:24;17.90;1.00
6146;DHT22;3104;50.348;7.620;2023-07-31T03:45:50;18.00;1.00
6146;DHT22;3104;50.348;7.620;2023-07-31T03:48:16;17.90;99.90
6146;DHT22;3104;50.348;7.620;2023-07-31T03:50:42;17.90;1.00
6146;DHT22;3104;50.348;7.620;2023-07-31T03:53:07;17.90;1.00
6146;DHT22;3104;50.348;7.620;2023-07-31T03:55:33;17.80;1.00
6146;DHT22;3104;50.348;7.620;2023-07-31T03:57:59;17.80;1.00
6146;DHT22;3104;50.348;7.620;2023-07-31T04:00:26;17.80;1.00
6146;DHT22;3104;50.348;7.620;2023-07-31T04:02:52;17.80;1.00
6146;DHT22;3104;50.348;7.620;2023-07-31T04:05:18;17.90;1.00
6146;DHT22;3104;50.348;7.620;2023-07-31T04:07:44;17.80;1.00
6146;DHT22;3104;50.348;7.620;2023-07-31T04:10:09;17.80;1.00
6146;DHT22;3104;50.348;7.620;2023-07-31T04:12:35;17.90;1.00
6146;DHT22;3104;50.348;7.620;2023-07-31T04:15:00;17.90;1.00
6146;DHT22;3104;50.348;7.620;2023-07-31T04:17:26;18.00;99.90
6146;DHT22;3104;50.348;7.620;2023-07-31T04:19:52;17.90;1.00
6146;DHT22;3104;50.348;7.620;2023-07-31T04:22:17;17.90;1.00
6146;DHT22;3104;50.348;7.620;2023-07-31T04:24:43;17.90;99.90
6146;DHT22;3104;50.348;7.620;2023-07-31T04:27:08;17.90;1.00
6146;DHT22;3104;50.348;7.620;2023-07-31T04:29:34;18.00;1.00
6146;DHT22;3104;50.348;7.620;2023-07-31T04:31:59;17.90;1.00
6146;DHT22;3104;50.348;7.620;2023-07-31T04:34:25;17.80;1.00
6146;DHT22;3104;50.348;7.620;2023-07-31T04:36:52;17.90;1.00
6146;DHT22;3104;50.348;7.620;2023-07-31T04:39:17;17.90;1.00
6146;DHT22;3104;50.348;7.620;2023-07-31T04:41:44;17.90;1.00
6146;DHT22;3104;50.348;7.620;2023-07-31T04:44:10;17.90;1.00
6146;DHT22;3104;50.348;7.620;2023-07-31T04:46:36;17.90;1.00
6146;DHT22;3104;50.348;7.620;2023-07-31T04:49:02;18.00;1.00
6146;DHT22;3104;50.348;7.620;2023-07-31T04:51:28;17.90;1.00
6146;DHT22;3104;50.348;7.620;2023-07-31T04:53:54;17.90;1.00
6146;DHT22;3104;50.348;7.620;2023-07-31T04:56:19;17.90;1.00
6146;DHT22;3104;50.348;7.620;2023-07-31T04:58:45;18.00;1.00
6146;DHT22;3104;50.348;7.620;2023-07-31T05:01:10;18.00;1.00
6146;DHT22;3104;50.348;7.620;2023-07-31T05:03:36;18.00;1.00
6146;DHT22;3104;50.348;7.620;2023-07-31T05:06:01;18.00;1.00
6146;DHT22;3104;50.348;7.620;2023-07-31T05:08:27;18.00;1.00
6146;DHT22;3104;50.348;7.620;2023-07-31T05:10:52;17.90;1.00
6146;DHT22;3104;50.348;7.620;2023-07-31T05:13:18;18.00;1.00
6146;DHT22;3104;50.348;7.620;2023-07-31T05:15:43;18.00;1.00
6146;DHT22;3104;50.348;7.620;2023-07-31T05:18:09;18.00;1.00
6146;DHT22;3104;50.348;7.620;2023-07-31T05:20:34;17.90;1.00
6146;DHT22;3104;50.348;7.620;2023-07-31T05:23:00;18.00;1.00
6146;DHT22;3104;50.348;7.620;2023-07-31T05:25:25;18.00;1.00
6146;DHT22;3104;50.348;7.620;2023-07-31T05:27:51;18.00;1.00
6146;DHT22;3104;50.348;7.620;2023-07-31T05:30:16;18.00;1.00
6146;DHT22;3104;50.348;7.620;2023-07-31T05:32:42;18.10;99.90
6146;DHT22;3104;50.348;7.620;2023-07-31T05:35:08;18.00;99.90
6146;DHT22;3104;50.348;7.620;2023-07-31T05:37:34;18.10;99.90
6146;DHT22;3104;50.348;7.620;2023-07-31T05:39:59;18.00;99.90
6146;DHT22;3104;50.348;7.620;2023-07-31T05:42:25;18.10;99.90
6146;DHT22;3104;50.348;7.620;2023-07-31T05:44:51;18.10;99.90
6146;DHT22;3104;50.348;7.620;2023-07-31T05:47:16;18.10;99.90
6146;DHT22;3104;50.348;7.620;2023-07-31T05:49:42;18.00;99.90
6146;DHT22;3104;50.348;7.620;2023-07-31T05:52:07;18.10;99.90
6146;DHT22;3104;50.348;7.620;2023-07-31T05:54:33;18.20;99.90
6146;DHT22;3104;50.348;7.620;2023-07-31T05:56:59;18.10;91.10
6146;DHT22;3104;50.348;7.620;2023-07-31T05:59:24;18.20;99.90
6146;DHT22;3104;50.348;7.620;2023-07-31T06:01:50;18.20;1.00
6146;DHT22;3104;50.348;7.620;2023-07-31T06:04:15;18.20;1.00
6146;DHT22;3104;50.348;7.620;2023-07-31T06:06:41;18.30;99.90
6146;DHT22;3104;50.348;7.620;2023-07-31T06:09:06;18.30;99.90
6146;DHT22;3104;50.348;7.620;2023-07-31T06:11:32;18.30;99.90
6146;DHT22;3104;50.348;7.620;2023-07-31T06:13:58;18.40;99.90
6146;DHT22;3104;50.348;7.620;2023-07-31T06:16:25;18.50;1.00
6146;DHT22;3104;50.348;7.620;2023-07-31T06:18:50;18.60;99.90
6146;DHT22;3104;50.348;7.620;2023-07-31T06:21:16;18.60;1.00
6146;DHT22;3104;50.348;7.620;2023-07-31T06:23:42;18.70;1.00
6146;DHT22;3104;50.348;7.620;2023-07-31T06:26:08;18.80;99.90
6146;DHT22;3104;50.348;7.620;2023-07-31T06:28:34;18.80;1.00
6146;DHT22;3104;50.348;7.620;2023-07-31T06:31:00;18.90;1.00
6146;DHT22;3104;50.348;7.620;2023-07-31T06:33:26;18.80;99.90
6146;DHT22;3104;50.348;7.620;2023-07-31T06:35:51;18.80;1.00
6146;DHT22;3104;50.348;7.620;2023-07-31T06:38:24;18.60;99.90
6146;DHT22;3104;50.348;7.620;2023-07-31T06:40:50;18.50;1.00
6146;DHT22;3104;50.348;7.620;2023-07-31T06:43:15;18.50;99.90
6146;DHT22;3104;50.348;7.620;2023-07-31T06:45:41;18.40;1.00
6146;DHT22;3104;50.348;7.620;2023-07-31T06:48:06;18.40;1.00
6146;DHT22;3104;50.348;7.620;2023-07-31T06:50:32;18.40;1.00
6146;DHT22;3104;50.348;7.620;2023-07-31T06:52:58;18.40;1.00
6146;DHT22;3104;50.348;7.620;2023-07-31T06:55:24;18.30;1.00
6146;DHT22;3104;50.348;7.620;2023-07-31T06:57:52;18.30;1.00
6146;DHT22;3104;50.348;7.620;2023-07-31T07:00:18;18.30;1.00
6146;DHT22;3104;50.348;7.620;2023-07-31T07:02:45;18.40;99.90
6146;DHT22;3104;50.348;7.620;2023-07-31T07:05:12;18.50;99.90
6146;DHT22;3104;50.348;7.620;2023-07-31T07:07:38;18.50;1.00
6146;DHT22;3104;50.348;7.620;2023-07-31T07:10:04;18.40;1.00
6146;DHT22;3104;50.348;7.620;2023-07-31T07:12:31;18.40;1.00
6146;DHT22;3104;50.348;7.620;2023-07-31T07:14:57;18.50;99.90
6146;DHT22;3104;50.348;7.620;2023-07-31T07:17:27;18.50;1.00
6146;DHT22;3104;50.348;7.620;2023-07-31T07:19:53;18.60;1.00
6146;DHT22;3104;50.348;7.620;2023-07-31T07:22:18;18.60;99.90
6146;DHT22;3104;50.348;7.620;2023-07-31T07:24:44;18.60;1.00
6146;DHT22;3104;50.348;7.620;2023-07-31T07:27:10;18.70;99.90
6146;DHT22;3104;50.348;7.620;2023-07-31T07:29:35;18.70;1.00
6146;DHT22;3104;50.348;7.620;2023-07-31T07:32:01;18.80;99.90
6146;DHT22;3104;50.348;7.620;2023-07-31T07:34:27;18.80;1.00
6146;DHT22;3104;50.348;7.620;2023-07-31T07:36:54;18.60;99.90
6146;DHT22;3104;50.348;7.620;2023-07-31T07:39:20;18.70;1.00
6146;DHT22;3104;50.348;7.620;2023-07-31T07:41:46;18.90;99.90
6146;DHT22;3104;50.348;7.620;2023-07-31T07:44:12;19.10;1.00
6146;DHT22;3104;50.348;7.620;2023-07-31T07:46:38;19.20;1.00
6146;DHT22;3104;50.348;7.620;2023-07-31T07:49:03;19.10;1.00
6146;DHT22;3104;50.348;7.620;2023-07-31T07:51:29;19.10;99.90
6146;DHT22;3104;50.348;7.620;2023-07-31T07:53:59;19.20;1.00
6146;DHT22;3104;50.348;7.620;2023-07-31T07:56:26;19.20;99.90
6146;DHT22;3104;50.348;7.620;2023-07-31T07:58:52;19.20;1.00
6146;DHT22;3104;50.348;7.620;2023-07-31T08:01:18;19.20;1.00
6146;DHT22;3104;50.348;7.620;2023-07-31T08:03:44;19.10;1.00
6146;DHT22;3104;50.348;7.620;2023-07-31T08:06:09;19.00;1.00
6146;DHT22;3104;50.348;7.620;2023-07-31T08:08:36;19.00;1.00
6146;DHT22;3104;50.348;7.620;2023-07-31T08:11:02;18.80;99.90
6146;DHT22;3104;50.348;7.620;2023-07-31T08:13:28;18.70;99.90
6146;DHT22;3104;50.348;7.620;2023-07-31T08:15:53;18.80;1.00
6146;DHT22;3104;50.348;7.620;2023-07-31T08:18:19;18.90;45.00
6146;DHT22;3104;50.348;7.620;2023-07-31T08:20:45;18.80;1.00
6146;DHT22;3104;50.348;7.620;2023-07-31T08:23:10;18.70;1.00
6146;DHT22;3104;50.348;7.620;2023-07-31T08:25:36;18.70;1.00
6146;DHT22;3104;50.348;7.620;2023-07-31T08:28:03;18.70;1.00
6146;DHT22;3104;50.348;7.620;2023-07-31T08:30:28;18.60;99.90
6146;DHT22;3104;50.348;7.620;2023-07-31T08:32:54;18.40;1.00
6146;DHT22;3104;50.348;7.620;2023-07-31T08:35:19;18.30;1.00
6146;DHT22;3104;50.348;7.620;2023-07-31T08:37:45;18.20;1.00
6146;DHT22;3104;50.348;7.620;2023-07-31T08:40:11;18.20;16.50
6146;DHT22;3104;50.348;7.620;2023-07-31T08:42:47;18.20;17.80
6146;DHT22;3104;50.348;7.620;2023-07-31T08:45:18;18.20;99.90
6146;DHT22;3104;50.348;7.620;2023-07-31T08:47:49;18.20;99.90
6146;DHT22;3104;50.348;7.620;2023-07-31T08:50:17;18.10;1.00
6146;DHT22;3104;50.348;7.620;2023-07-31T08:52:44;18.30;14.00
6146;DHT22;3104;50.348;7.620;2023-07-31T08:55:09;18.40;1.00
6146;DHT22;3104;50.348;7.620;2023-07-31T08:57:37;18.50;59.00
6146;DHT22;3104;50.348;7.620;2023-07-31T09:00:04;18.50;1.00
6146;DHT22;3104;50.348;7.620;2023-07-31T09:05:17;18.50;1.00
6146;DHT22;3104;50.348;7.620;2023-07-31T09:07:44;18.60;1.00
6146;DHT22;3104;50.348;7.620;2023-07-31T09:10:12;18.70;99.90
6146;DHT22;3104;50.348;7.620;2023-07-31T09:12:38;18.70;99.90
6146;DHT22;3104;50.348;7.620;2023-07-31T09:15:04;18.80;99.90
6146;DHT22;3104;50.348;7.620;2023-07-31T09:17:36;18.80;99.90
6146;DHT22;3104;50.348;7.620;2023-07-31T09:20:19;18.80;99.90
6146;DHT22;3104;50.348;7.620;2023-07-31T09:22:47;18.80;99.90
6146;DHT22;3104;50.348;7.620;2023-07-31T09:25:24;18.80;1.00
6146;DHT22;3104;50.348;7.620;2023-07-31T09:28:04;18.80;1.00
6146;DHT22;3104;50.348;7.620;2023-07-31T09:30:30;18.90;1.00
6146;DHT22;3104;50.348;7.620;2023-07-31T09:33:04;18.80;92.10
6146;DHT22;3104;50.348;7.620;2023-07-31T09:35:32;18.70;1.00
6146;DHT22;3104;50.348;7.620;2023-07-31T09:38:00;18.70;99.90
6146;DHT22;3104;50.348;7.620;2023-07-31T09:40:27;18.80;99.90
6146;DHT22;3104;50.348;7.620;2023-07-31T09:42:59;18.90;99.90
6146;DHT22;3104;50.348;7.620;2023-07-31T09:45:25;19.10;99.90
6146;DHT22;3104;50.348;7.620;2023-07-31T09:47:51;19.30;99.90
6146;DHT22;3104;50.348;7.620;2023-07-31T09:50:19;19.40;1.00
6146;DHT22;3104;50.348;7.620;2023-07-31T09:52:45;19.60;1.00
6146;DHT22;3104;50.348;7.620;2023-07-31T09:55:11;19.70;99.90
6146;DHT22;3104;50.348;7.620;2023-07-31T09:57:40;19.70;1.00
6146;DHT22;3104;50.348;7.620;2023-07-31T10:00:07;19.60;1.00
6146;DHT22;3104;50.348;7.620;2023-07-31T10:02:35;19.60;51.30
6146;DHT22;3104;50.348;7.620;2023-07-31T10:05:02;19.70;99.90
6146;DHT22;3104;50.348;7.620;2023-07-31T10:07:30;19.80;1.00
6146;DHT22;3104;50.348;7.620;2023-07-31T10:09:58;19.80;74.30
6146;DHT22;3104;50.348;7.620;2023-07-31T10:12:26;19.80;4.30
6146;DHT22;3104;50.348;7.620;2023-07-31T10:14:54;19.70;1.00
6146;DHT22;3104;50.348;7.620;2023-07-31T10:17:21;19.90;95.20
6146;DHT22;3104;50.348;7.620;2023-07-31T10:19:48;19.90;1.00
6146;DHT22;3104;50.348;7.620;2023-07-31T10:22:14;20.00;1.00
6146;DHT22;3104;50.348;7.620;2023-07-31T10:24:42;19.90;1.00
6146;DHT22;3104;50.348;7.620;2023-07-31T10:27:08;19.90;1.00
6146;DHT22;3104;50.348;7.620;2023-07-31T10:29:36;20.00;1.00
6146;DHT22;3104;50.348;7.620;2023-07-31T10:32:03;20.10;1.00
6146;DHT22;3104;50.348;7.620;2023-07-31T10:34:33;20.00;1.00
6146;DHT22;3104;50.348;7.620;2023-07-31T10:40:18;20.30;1.00
6146;DHT22;3104;50.348;7.620;2023-07-31T10:45:39;20.40;99.90
6146;DHT22;3104;50.348;7.620;2023-07-31T10:48:12;20.60;99.90
6146;DHT22;3104;50.348;7.620;2023-07-31T10:50:46;20.70;22.80
6146;DHT22;3104;50.348;7.620;2023-07-31T10:53:23;20.90;1.00
6146;DHT22;3104;50.348;7.620;2023-07-31T10:55:49;21.10;1.00
6146;DHT22;3104;50.348;7.620;2023-07-31T10:58:19;21.20;1.00
6146;DHT22;3104;50.348;7.620;2023-07-31T11:00:48;21.40;20.70
6146;DHT22;3104;50.348;7.620;2023-07-31T11:03:15;21.20;1.00
6146;DHT22;3104;50.348;7.620;2023-07-31T11:08:23;21.00;1.00
6146;DHT22;3104;50.348;7.620;2023-07-31T11:11:13;21.00;1.00
6146;DHT22;3104;50.348;7.620;2023-07-31T11:13:46;20.90;6.90
6146;DHT22;3104;50.348;7.620;2023-07-31T11:16:16;21.10;99.90
6146;DHT22;3104;50.348;7.620;2023-07-31T11:18:44;21.10;1.00
6146;DHT22;3104;50.348;7.620;2023-07-31T11:21:18;21.00;1.00
6146;DHT22;3104;50.348;7.620;2023-07-31T11:23:53;21.00;1.00
6146;DHT22;3104;50.348;7.620;2023-07-31T11:26:21;21.00;1.00
6146;DHT22;3104;50.348;7.620;2023-07-31T11:28:49;21.00;1.00
6146;DHT22;3104;50.348;7.620;2023-07-31T11:31:14;21.00;1.00
6146;DHT22;3104;50.348;7.620;2023-07-31T11:33:40;21.10;1.00
6146;DHT22;3104;50.348;7.620;2023-07-31T11:36:05;21.10;1.00
6146;DHT22;3104;50.348;7.620;2023-07-31T11:38:33;21.20;1.00
6146;DHT22;3104;50.348;7.620;2023-07-31T11:41:03;21.20;1.00
6146;DHT22;3104;50.348;7.620;2023-07-31T11:43:30;21.30;91.40
6146;DHT22;3104;50.348;7.620;2023-07-31T11:45:59;21.30;1.00
6146;DHT22;3104;50.348;7.620;2023-07-31T11:48:33;21.50;1.00
6146;DHT22;3104;50.348;7.620;2023-07-31T11:51:02;21.70;1.00
6146;DHT22;3104;50.348;7.620;2023-07-31T11:55:58;22.10;1.00
6146;DHT22;3104;50.348;7.620;2023-07-31T11:58:24;22.20;1.00
6146;DHT22;3104;50.348;7.620;2023-07-31T12:00:51;22.00;1.00
6146;DHT22;3104;50.348;7.620;2023-07-31T12:03:17;22.00;1.00
6146;DHT22;3104;50.348;7.620;2023-07-31T12:05:43;21.80;1.00
6146;DHT22;3104;50.348;7.620;2023-07-31T12:08:10;21.90;1.00
6146;DHT22;3104;50.348;7.620;2023-07-31T12:10:37;22.00;1.00
6146;DHT22;3104;50.348;7.620;2023-07-31T12:13:10;22.20;1.00
6146;DHT22;3104;50.348;7.620;2023-07-31T12:15:43;21.90;1.00
6146;DHT22;3104;50.348;7.620;2023-07-31T12:18:22;21.90;1.00
6146;DHT22;3104;50.348;7.620;2023-07-31T12:20:54;22.60;1.00
6146;DHT22;3104;50.348;7.620;2023-07-31T12:23:21;22.40;99.90
6146;DHT22;3104;50.348;7.620;2023-07-31T12:26:15;22.60;99.90
6146;DHT22;3104;50.348;7.620;2023-07-31T12:28:43;22.60;1.00
6146;DHT22;3104;50.348;7.620;2023-07-31T12:31:10;22.40;1.00
6146;DHT22;3104;50.348;7.620;2023-07-31T12:33:38;22.00;1.00
6146;DHT22;3104;50.348;7.620;2023-07-31T12:36:10;21.90;1.00
6146;DHT22;3104;50.348;7.620;2023-07-31T12:38:36;22.00;1.00
6146;DHT22;3104;50.348;7.620;2023-07-31T12:41:02;22.30;1.00
6146;DHT22;3104;50.348;7.620;2023-07-31T12:43:27;22.40;99.90
6146;DHT22;3104;50.348;7.620;2023-07-31T12:45:54;22.30;1.00
6146;DHT22;3104;50.348;7.620;2023-07-31T12:48:20;22.40;1.00
6146;DHT22;3104;50.348;7.620;2023-07-31T12:50:45;21.90;1.00
6146;DHT22;3104;50.348;7.620;2023-07-31T12:53:11;21.90;1.00
6146;DHT22;3104;50.348;7.620;2023-07-31T12:55:36;21.50;1.00
6146;DHT22;3104;50.348;7.620;2023-07-31T12:58:03;21.50;1.00
6146;DHT22;3104;50.348;7.620;2023-07-31T13:00:29;21.60;1.00
6146;DHT22;3104;50.348;7.620;2023-07-31T13:02:54;21.60;1.00
6146;DHT22;3104;50.348;7.620;2023-07-31T13:05:20;21.50;1.00
6146;DHT22;3104;50.348;7.620;2023-07-31T13:07:46;21.40;1.00
6146;DHT22;3104;50.348;7.620;2023-07-31T13:10:12;21.40;1.00
6146;DHT22;3104;50.348;7.620;2023-07-31T13:12:37;21.40;1.00
6146;DHT22;3104;50.348;7.620;2023-07-31T13:15:06;21.40;1.00
6146;DHT22;3104;50.348;7.620;2023-07-31T13:17:32;21.40;1.00
6146;DHT22;3104;50.348;7.620;2023-07-31T13:19:58;21.40;1.00
6146;DHT22;3104;50.348;7.620;2023-07-31T13:22:24;21.30;1.00
6146;DHT22;3104;50.348;7.620;2023-07-31T13:24:50;21.30;1.00
6146;DHT22;3104;50.348;7.620;2023-07-31T13:27:15;21.10;38.70
6146;DHT22;3104;50.348;7.620;2023-07-31T13:29:46;21.30;89.50
6146;DHT22;3104;50.348;7.620;2023-07-31T13:32:11;21.20;99.90
6146;DHT22;3104;50.348;7.620;2023-07-31T13:34:37;21.20;99.90
6146;DHT22;3104;50.348;7.620;2023-07-31T13:37:03;21.10;79.80
6146;DHT22;3104;50.348;7.620;2023-07-31T13:39:31;21.10;99.90
6146;DHT22;3104;50.348;7.620;2023-07-31T13:41:57;21.00;99.90
6146;DHT22;3104;50.348;7.620;2023-07-31T13:44:22;21.10;99.90
6146;DHT22;3104;50.348;7.620;2023-07-31T13:46:48;21.10;99.90
6146;DHT22;3104;50.348;7.620;2023-07-31T13:49:13;20.90;1.00
6146;DHT22;3104;50.348;7.620;2023-07-31T13:51:39;20.90;1.00
6146;DHT22;3104;50.348;7.620;2023-07-31T13:54:05;20.70;1.00
6146;DHT22;3104;50.348;7.620;2023-07-31T13:56:32;20.50;34.10
6146;DHT22;3104;50.348;7.620;2023-07-31T13:58:57;20.80;8.30
6146;DHT22;3104;50.348;7.620;2023-07-31T14:01:23;21.00;1.00
6146;DHT22;3104;50.348;7.620;2023-07-31T14:03:49;21.00;1.00
6146;DHT22;3104;50.348;7.620;2023-07-31T14:06:15;20.60;1.00
6146;DHT22;3104;50.348;7.620;2023-07-31T14:08:40;20.60;1.00
6146;DHT22;3104;50.348;7.620;2023-07-31T14:11:06;20.70;1.00
6146;DHT22;3104;50.348;7.620;2023-07-31T14:13:31;20.90;1.00
6146;DHT22;3104;50.348;7.620;2023-07-31T14:15:57;20.70;1.00
6146;DHT22;3104;50.348;7.620;2023-07-31T14:18:23;20.80;1.00
6146;DHT22;3104;50.348;7.620;2023-07-31T14:20:48;20.80;1.00
6146;DHT22;3104;50.348;7.620;2023-07-31T14:23:14;20.70;1.00
6146;DHT22;3104;50.348;7.620;2023-07-31T14:25:41;20.80;1.00
6146;DHT22;3104;50.348;7.620;2023-07-31T14:28:06;20.80;1.00
6146;DHT22;3104;50.348;7.620;2023-07-31T14:30:32;20.70;1.00
6146;DHT22;3104;50.348;7.620;2023-07-31T14:32:57;21.20;1.00
6146;DHT22;3104;50.348;7.620;2023-07-31T14:35:23;21.40;1.00
6146;DHT22;3104;50.348;7.620;2023-07-31T14:37:48;21.30;99.90
6146;DHT22;3104;50.348;7.620;2023-07-31T14:40:14;20.90;1.00
6146;DHT22;3104;50.348;7.620;2023-07-31T14:42:40;20.90;1.00
6146;DHT22;3104;50.348;7.620;2023-07-31T14:45:07;20.90;1.00
6146;DHT22;3104;50.348;7.620;2023-07-31T14:47:33;20.80;1.00
6146;DHT22;3104;50.348;7.620;2023-07-31T14:50:00;20.70;59.70
6146;DHT22;3104;50.348;7.620;2023-07-31T14:52:26;20.60;99.90
6146;DHT22;3104;50.348;7.620;2023-07-31T14:54:52;20.60;1.00
6146;DHT22;3104;50.348;7.620;2023-07-31T14:57:17;20.60;56.30
6146;DHT22;3104;50.348;7.620;2023-07-31T14:59:43;20.80;99.90
6146;DHT22;3104;50.348;7.620;2023-07-31T15:02:09;20.80;76.10
6146;DHT22;3104;50.348;7.620;2023-07-31T15:04:35;20.80;99.90
6146;DHT22;3104;50.348;7.620;2023-07-31T15:07:01;20.70;91.00
6146;DHT22;3104;50.348;7.620;2023-07-31T15:09:27;20.50;99.90
6146;DHT22;3104;50.348;7.620;2023-07-31T15:11:52;20.20;1.00
6146;DHT22;3104;50.348;7.620;2023-07-31T15:14:18;20.00;1.00
6146;DHT22;3104;50.348;7.620;2023-07-31T15:16:44;20.10;1.00
6146;DHT22;3104;50.348;7.620;2023-07-31T15:19:09;19.90;99.90
6146;DHT22;3104;50.348;7.620;2023-07-31T15:21:36;19.80;99.90
6146;DHT22;3104;50.348;7.620;2023-07-31T15:24:02;19.90;99.90
6146;DHT22;3104;50.348;7.620;2023-07-31T15:26:28;19.70;99.90
6146;DHT22;3104;50.348;7.620;2023-07-31T15:29:01;19.70;99.90
6146;DHT22;3104;50.348;7.620;2023-07-31T15:31:28;19.80;99.90
6146;DHT22;3104;50.348;7.620;2023-07-31T15:33:53;19.90;99.90
6146;DHT22;3104;50.348;7.620;2023-07-31T15:36:19;19.90;1.00
6146;DHT22;3104;50.348;7.620;2023-07-31T15:38:44;19.80;99.90
6146;DHT22;3104;50.348;7.620;2023-07-31T15:41:11;19.90;99.90
6146;DHT22;3104;50.348;7.620;2023-07-31T15:43:37;20.10;99.90
6146;DHT22;3104;50.348;7.620;2023-07-31T15:46:02;20.20;1.00
6146;DHT22;3104;50.348;7.620;2023-07-31T15:48:28;20.20;1.00
6146;DHT22;3104;50.348;7.620;2023-07-31T15:50:53;20.10;1.00
6146;DHT22;3104;50.348;7.620;2023-07-31T15:53:19;20.00;1.00
6146;DHT22;3104;50.348;7.620;2023-07-31T15:55:45;20.20;99.90
6146;DHT22;3104;50.348;7.620;2023-07-31T15:58:10;20.20;1.00
6146;DHT22;3104;50.348;7.620;2023-07-31T16:00:36;20.30;43.70
6146;DHT22;3104;50.348;7.620;2023-07-31T16:03:01;20.10;1.00
6146;DHT22;3104;50.348;7.620;2023-07-31T16:05:27;20.00;1.00
6146;DHT22;3104;50.348;7.620;2023-07-31T16:07:52;20.00;1.00
6146;DHT22;3104;50.348;7.620;2023-07-31T16:10:18;19.90;1.00
6146;DHT22;3104;50.348;7.620;2023-07-31T16:12:44;19.80;1.00
6146;DHT22;3104;50.348;7.620;2023-07-31T16:15:09;19.90;1.00
6146;DHT22;3104;50.348;7.620;2023-07-31T16:17:35;19.80;24.20
6146;DHT22;3104;50.348;7.620;2023-07-31T16:20:00;19.80;1.00
6146;DHT22;3104;50.348;7.620;2023-07-31T16:22:27;19.80;99.90